Time;durP1;ratioP1;P1;durP2;ratioP2;P2;SDS_P1;SDS_P2;PMS_P1;PMS_P2;Temp;Humidity;BMP_temperature;BMP_pressure;BME280_temperature;BME280_humidity;BME280_pressure;Samples;Min_cycle;Max_cycle;Signal;HPM_P1;HPM_P2
2022/01/06 00:00:59;;;;;;;0.05;0.00;;;10.00;96.70;;;;;;5075717;28;20100;-72
2022/01/06 00:03:28;;;;;;;0.85;0.00;;;9.90;96.70;;;;;;5078468;28;20409;-71
2022/01/06 00:05:56;;;;;;;0.00;0.00;;;9.90;96.70;;;;;;5077244;28;20040;-71
2022/01/06 00:08:24;;;;;;;0.00;0.00;;;9.90;96.70;;;;;;5079000;28;20071;-72
2022/01/06 00:10:53;;;;;;;0.05;0.00;;;9.80;96.70;;;;;;5077344;28;20044;-71
2022/01/06 00:13:32;;;;;;;0.00;0.00;;;9.80;96.70;;;;;;5073256;28;20062;-71
2022/01/06 00:16:26;;;;;;;0.00;0.00;;;9.80;96.70;;;;;;5073251;28;20040;-72
2022/01/06 00:24:16;;;;;;;0.00;0.00;;;9.60;96.70;;;;;;5077787;28;20706;-72
2022/01/06 00:26:44;;;;;;;0.68;0.00;;;9.60;96.70;;;;;;5074485;28;20036;-72
2022/01/06 00:29:14;;;;;;;0.10;0.00;;;9.60;96.70;;;;;;5077399;28;20493;-71
2022/01/06 00:31:42;;;;;;;0.00;0.00;;;9.60;96.70;;;;;;5079279;28;20032;-71
2022/01/06 00:34:11;;;;;;;0.00;0.00;;;9.60;96.70;;;;;;5078331;28;20048;-71
2022/01/06 00:36:41;;;;;;;0.00;0.00;;;9.50;96.70;;;;;;5076341;28;20032;-71
2022/01/06 00:39:10;;;;;;;0.00;0.00;;;9.60;96.70;;;;;;5081482;28;20087;-71
2022/01/06 00:41:39;;;;;;;0.10;0.00;;;9.50;96.70;;;;;;5078329;28;20044;-71
2022/01/06 00:44:08;;;;;;;0.00;0.00;;;9.50;96.70;;;;;;5078992;28;20046;-71
2022/01/06 00:46:37;;;;;;;0.00;0.00;;;9.50;96.70;;;;;;5078024;28;20048;-72
2022/01/06 00:49:05;;;;;;;0.00;0.00;;;9.40;96.70;;;;;;5078279;28;20052;-71
2022/01/06 00:51:33;;;;;;;0.17;0.08;;;9.50;96.70;;;;;;5076531;28;20036;-71
2022/01/06 00:54:01;;;;;;;0.13;0.00;;;9.60;96.70;;;;;;5079379;28;20048;-71
2022/01/06 00:56:29;;;;;;;0.00;0.00;;;9.50;96.70;;;;;;5078370;28;20036;-71
2022/01/06 00:58:57;;;;;;;0.00;0.00;;;9.40;96.70;;;;;;5079131;28;20574;-71
2022/01/06 01:01:25;;;;;;;0.00;0.00;;;9.50;96.70;;;;;;5075362;28;20067;-71
2022/01/06 01:03:55;;;;;;;0.20;0.00;;;9.40;96.70;;;;;;5074829;28;20118;-72
2022/01/06 01:06:23;;;;;;;0.30;0.00;;;9.50;96.70;;;;;;5079064;28;20052;-71
2022/01/06 01:08:51;;;;;;;0.00;0.00;;;9.50;96.70;;;;;;5080996;28;20047;-71
2022/01/06 01:11:19;;;;;;;0.00;0.00;;;9.40;96.70;;;;;;5079524;28;20036;-71
2022/01/06 01:14:07;;;;;;;0.00;0.00;;;9.50;96.70;;;;;;5077472;28;20489;-71
2022/01/06 01:16:35;;;;;;;0.00;0.00;;;9.40;96.70;;;;;;5076856;28;20044;-71
2022/01/06 01:19:10;;;;;;;0.00;0.00;;;9.50;96.70;;;;;;5080466;28;20046;-71
2022/01/06 01:21:38;;;;;;;0.77;0.00;;;9.50;96.70;;;;;;5077379;28;20052;-71
2022/01/06 01:24:07;;;;;;;0.03;0.00;;;9.50;96.70;;;;;;5074527;28;20044;-72
2022/01/06 01:26:35;;;;;;;0.00;0.00;;;9.50;96.70;;;;;;5076685;28;20060;-71
2022/01/06 01:29:03;;;;;;;0.00;0.00;;;9.50;96.70;;;;;;5062518;28;20051;-71
2022/01/06 01:31:36;;;;;;;0.00;0.00;;;9.40;96.70;;;;;;5079007;28;20054;-71
2022/01/06 01:34:09;;;;;;;0.00;0.00;;;9.40;96.70;;;;;;5078517;28;20045;-71
2022/01/06 01:36:37;;;;;;;0.00;0.00;;;9.50;96.70;;;;;;5077073;28;20070;-71
2022/01/06 01:39:06;;;;;;;0.05;0.00;;;9.50;96.70;;;;;;5076618;28;20040;-72
2022/01/06 01:41:34;;;;;;;0.05;0.00;;;9.50;96.70;;;;;;5079363;28;20040;-72
2022/01/06 01:44:05;;;;;;;0.10;0.00;;;9.40;96.70;;;;;;5078851;28;20054;-72
2022/01/06 01:46:42;;;;;;;0.00;0.00;;;9.30;96.70;;;;;;5074578;28;20128;-72
2022/01/06 01:51:51;;;;;;;0.00;0.00;;;9.30;96.70;;;;;;5075077;28;20437;-72
2022/01/06 01:54:19;;;;;;;0.00;0.00;;;9.40;96.70;;;;;;5079100;28;20406;-71
2022/01/06 01:56:47;;;;;;;0.00;0.00;;;9.40;96.70;;;;;;5077546;28;20036;-72
2022/01/06 01:59:15;;;;;;;0.00;0.00;;;9.40;96.70;;;;;;5080234;28;20119;-72
2022/01/06 02:01:43;;;;;;;0.00;0.00;;;9.40;96.70;;;;;;5081958;28;20032;-72
2022/01/06 02:04:13;;;;;;;0.00;0.00;;;9.40;96.70;;;;;;5075576;28;20054;-72
2022/01/06 02:06:41;;;;;;;0.00;0.00;;;9.30;96.70;;;;;;5070738;28;20522;-72
2022/01/06 02:09:09;;;;;;;0.00;0.00;;;9.40;96.70;;;;;;5077593;28;20062;-71
2022/01/06 02:11:37;;;;;;;0.00;0.00;;;9.40;96.70;;;;;;5081423;28;20043;-71
2022/01/06 02:14:06;;;;;;;0.13;0.10;;;9.40;96.70;;;;;;5074764;28;20043;-71
2022/01/06 02:16:34;;;;;;;0.00;0.00;;;9.40;96.70;;;;;;5058273;28;20078;-72
2022/01/06 02:19:03;;;;;;;0.00;0.00;;;9.40;96.70;;;;;;5076403;28;20051;-72
2022/01/06 02:21:32;;;;;;;0.05;0.00;;;9.40;96.70;;;;;;5075957;28;20515;-71
2022/01/06 02:24:00;;;;;;;0.03;0.00;;;9.30;96.70;;;;;;5075418;28;20524;-72
2022/01/06 02:26:29;;;;;;;0.00;0.00;;;9.40;96.70;;;;;;5076612;28;20505;-71
2022/01/06 02:28:57;;;;;;;0.00;0.00;;;9.40;96.70;;;;;;5075772;28;20044;-71
2022/01/06 02:31:25;;;;;;;0.00;0.00;;;9.50;96.70;;;;;;5075442;28;20157;-72
2022/01/06 02:33:53;;;;;;;0.00;0.00;;;9.30;96.70;;;;;;5076324;28;20119;-71
2022/01/06 02:36:21;;;;;;;1.35;0.00;;;9.30;96.70;;;;;;5077417;28;20090;-71
2022/01/06 02:38:51;;;;;;;0.00;0.00;;;9.30;96.70;;;;;;5071855;28;20083;-71
2022/01/06 02:41:19;;;;;;;0.00;0.00;;;9.30;96.70;;;;;;5074764;28;20036;-72
2022/01/06 02:43:50;;;;;;;0.00;0.00;;;9.40;96.70;;;;;;5074166;28;20045;-71
2022/01/06 02:46:18;;;;;;;0.00;0.00;;;9.40;96.70;;;;;;5077569;28;20159;-72
2022/01/06 02:48:46;;;;;;;0.00;0.00;;;9.40;96.70;;;;;;5058389;28;20128;-72
2022/01/06 02:51:14;;;;;;;0.00;0.00;;;9.40;96.70;;;;;;5074668;28;20028;-71
2022/01/06 02:53:42;;;;;;;0.00;0.00;;;9.40;96.70;;;;;;5076031;28;20037;-72
2022/01/06 02:56:11;;;;;;;0.20;0.00;;;9.40;96.70;;;;;;5078860;28;20313;-71
2022/01/06 02:58:42;;;;;;;0.00;0.00;;;9.40;96.70;;;;;;5076156;28;20071;-71
2022/01/06 03:01:10;;;;;;;0.00;0.00;;;9.40;96.70;;;;;;5061724;28;20044;-71
2022/01/06 03:03:38;;;;;;;0.20;0.00;;;9.40;96.70;;;;;;5078861;28;20442;-72
2022/01/06 03:06:06;;;;;;;0.00;0.00;;;9.30;96.70;;;;;;5074453;28;20074;-72
2022/01/06 03:08:34;;;;;;;0.00;0.00;;;9.30;96.70;;;;;;5077935;28;20093;-71
2022/01/06 03:11:02;;;;;;;0.10;0.00;;;9.30;96.70;;;;;;5060630;28;20417;-71
2022/01/06 03:13:32;;;;;;;0.00;0.00;;;9.30;96.70;;;;;;5074146;28;20044;-72
2022/01/06 03:16:01;;;;;;;0.00;0.00;;;9.30;96.70;;;;;;5060718;28;20045;-71
2022/01/06 03:18:29;;;;;;;0.00;0.00;;;9.20;96.70;;;;;;5078666;28;20544;-72
2022/01/06 03:20:57;;;;;;;0.00;0.00;;;9.20;96.70;;;;;;5075637;28;20413;-72
2022/01/06 03:23:25;;;;;;;0.43;0.00;;;9.30;96.70;;;;;;5074772;28;20382;-71
2022/01/06 03:25:53;;;;;;;0.52;0.00;;;9.40;96.70;;;;;;5078511;28;20032;-72
2022/01/06 03:28:21;;;;;;;1.40;0.00;;;9.30;96.70;;;;;;5076268;28;20048;-72
2022/01/06 03:30:51;;;;;;;0.00;0.00;;;9.30;96.70;;;;;;5074522;28;20040;-71
2022/01/06 03:33:19;;;;;;;0.00;0.00;;;9.20;96.70;;;;;;5073779;28;20039;-71
2022/01/06 03:35:47;;;;;;;0.00;0.00;;;9.20;96.70;;;;;;5080162;28;20047;-73
2022/01/06 03:38:15;;;;;;;0.00;0.00;;;9.10;96.70;;;;;;5078051;28;20095;-71
2022/01/06 03:40:43;;;;;;;0.00;0.00;;;9.20;96.70;;;;;;5079862;28;20040;-71
2022/01/06 03:43:11;;;;;;;0.00;0.00;;;9.20;96.70;;;;;;5058481;28;20126;-71
2022/01/06 03:45:40;;;;;;;0.00;0.00;;;9.10;96.70;;;;;;5075082;28;20085;-71
2022/01/06 03:48:09;;;;;;;0.00;0.00;;;9.00;96.70;;;;;;5076500;28;20319;-72
2022/01/06 03:50:37;;;;;;;0.00;0.00;;;9.00;96.70;;;;;;5079881;28;20036;-71
2022/01/06 03:53:05;;;;;;;0.47;0.05;;;9.00;96.70;;;;;;5060342;28;20812;-71
2022/01/06 03:55:34;;;;;;;0.00;0.00;;;9.00;96.70;;;;;;5072612;28;20085;-72
2022/01/06 03:58:02;;;;;;;0.00;0.00;;;9.10;96.70;;;;;;5074685;28;20055;-72
2022/01/06 04:00:30;;;;;;;0.00;0.00;;;9.00;96.70;;;;;;5076497;28;20591;-71
2022/01/06 04:02:58;;;;;;;0.00;0.00;;;9.00;96.70;;;;;;5077571;28;20167;-71
2022/01/06 04:05:31;;;;;;;0.00;0.00;;;9.00;96.70;;;;;;5077227;28;20143;-71
2022/01/06 04:08:00;;;;;;;0.00;0.00;;;9.00;96.70;;;;;;5078218;28;20383;-71
2022/01/06 04:10:28;;;;;;;0.90;0.00;;;8.90;96.70;;;;;;5080398;28;20055;-71
2022/01/06 04:12:56;;;;;;;0.00;0.00;;;8.90;96.70;;;;;;5076593;28;20139;-72
2022/01/06 04:15:26;;;;;;;0.80;0.00;;;8.90;96.70;;;;;;5063862;28;20051;-71
2022/01/06 04:17:54;;;;;;;0.00;0.00;;;9.00;96.70;;;;;;5081155;28;20035;-71
2022/01/06 04:20:22;;;;;;;1.13;0.00;;;9.00;96.70;;;;;;5067778;28;20040;-71
2022/01/06 04:22:51;;;;;;;0.45;0.00;;;9.00;96.70;;;;;;5080706;28;20036;-72
2022/01/06 04:25:19;;;;;;;0.15;0.00;;;9.00;96.70;;;;;;5078969;28;20040;-71
2022/01/06 04:27:47;;;;;;;0.65;0.00;;;9.00;96.70;;;;;;5081504;28;20040;-72
2022/01/06 04:30:15;;;;;;;0.00;0.00;;;9.00;96.70;;;;;;5077365;28;20531;-71
2022/01/06 04:32:43;;;;;;;0.00;0.00;;;9.00;96.70;;;;;;5081540;28;20044;-72
2022/01/06 04:35:11;;;;;;;0.10;0.00;;;9.00;96.70;;;;;;5078279;28;20127;-71
2022/01/06 04:37:39;;;;;;;0.00;0.00;;;9.00;96.70;;;;;;5075985;28;20545;-72
2022/01/06 04:40:10;;;;;;;0.10;0.00;;;9.00;96.70;;;;;;5078964;28;20048;-73
2022/01/06 04:42:38;;;;;;;0.00;0.00;;;9.00;96.70;;;;;;5083763;28;20039;-72
2022/01/06 04:45:08;;;;;;;0.55;0.10;;;9.00;96.70;;;;;;5079688;28;20083;-71
2022/01/06 04:47:36;;;;;;;0.00;0.00;;;8.90;96.70;;;;;;5080898;28;20462;-72
2022/01/06 04:50:05;;;;;;;0.00;0.00;;;8.80;96.70;;;;;;5078786;28;20051;-71
2022/01/06 04:52:33;;;;;;;0.55;0.00;;;8.80;96.70;;;;;;5079624;28;20516;-72
2022/01/06 04:55:01;;;;;;;0.55;0.00;;;8.80;96.70;;;;;;5080332;28;20047;-71
2022/01/06 04:57:30;;;;;;;0.00;0.00;;;8.80;96.70;;;;;;5076051;28;20036;-71
2022/01/06 04:59:58;;;;;;;0.00;0.00;;;8.80;96.70;;;;;;5079633;28;20036;-72
2022/01/06 05:02:27;;;;;;;0.05;0.00;;;8.80;96.70;;;;;;5083134;28;20135;-71
2022/01/06 05:04:55;;;;;;;0.00;0.00;;;8.80;96.70;;;;;;5079690;28;20044;-72
2022/01/06 05:07:23;;;;;;;0.20;0.00;;;8.90;96.70;;;;;;5074762;28;20547;-72
2022/01/06 05:09:51;;;;;;;0.00;0.00;;;8.80;96.70;;;;;;5061560;28;20378;-71
2022/01/06 05:12:19;;;;;;;0.30;0.00;;;8.90;96.70;;;;;;5078867;28;20028;-71
2022/01/06 05:14:48;;;;;;;0.20;0.00;;;8.90;96.70;;;;;;5077701;28;20094;-72
2022/01/06 05:17:17;;;;;;;0.00;0.00;;;8.90;96.70;;;;;;5089827;28;20048;-71
2022/01/06 05:19:45;;;;;;;0.00;0.00;;;9.00;96.70;;;;;;5074833;28;20044;-71
2022/01/06 05:22:13;;;;;;;0.28;0.08;;;9.00;96.70;;;;;;5077190;28;20544;-71
2022/01/06 05:24:41;;;;;;;0.00;0.00;;;9.00;96.70;;;;;;5080228;28;20560;-71
2022/01/06 05:27:10;;;;;;;0.00;0.00;;;9.10;96.70;;;;;;5078432;28;20051;-71
2022/01/06 05:29:38;;;;;;;0.00;0.00;;;9.00;96.70;;;;;;5077669;28;20052;-71
2022/01/06 05:32:08;;;;;;;0.00;0.00;;;9.00;96.70;;;;;;5079206;28;20051;-72
2022/01/06 05:34:36;;;;;;;0.08;0.00;;;9.00;96.70;;;;;;5096060;28;20491;-71
2022/01/06 05:37:05;;;;;;;0.00;0.00;;;9.00;96.70;;;;;;5074255;28;20538;-71
2022/01/06 05:39:33;;;;;;;0.10;0.00;;;9.10;96.70;;;;;;5077338;28;20093;-72
2022/01/06 05:42:01;;;;;;;0.00;0.00;;;9.10;96.70;;;;;;5075737;28;20374;-71
2022/01/06 05:44:33;;;;;;;0.00;0.00;;;9.10;96.70;;;;;;5075123;28;20093;-72
2022/01/06 05:47:02;;;;;;;0.00;0.00;;;9.10;96.70;;;;;;5074790;28;20048;-71
2022/01/06 05:49:33;;;;;;;0.00;0.00;;;9.10;96.70;;;;;;5077337;28;20052;-71
2022/01/06 05:52:01;;;;;;;0.00;0.00;;;9.00;96.70;;;;;;5061576;28;20020;-72
2022/01/06 05:54:29;;;;;;;0.00;0.00;;;9.00;96.70;;;;;;5076431;28;20044;-72
2022/01/06 05:56:57;;;;;;;0.00;0.00;;;9.10;96.70;;;;;;5079086;28;20044;-72
2022/01/06 05:59:25;;;;;;;0.00;0.00;;;9.10;96.70;;;;;;5076851;28;20854;-72
2022/01/06 06:01:53;;;;;;;0.00;0.00;;;9.10;96.70;;;;;;5077793;28;20517;-72
2022/01/06 06:04:21;;;;;;;0.00;0.00;;;9.10;96.70;;;;;;5079235;28;20600;-72
2022/01/06 06:06:51;;;;;;;0.00;0.00;;;9.00;96.70;;;;;;5058855;28;20246;-72
2022/01/06 06:09:18;;;;;;;0.00;0.00;;;9.10;96.70;;;;;;5089620;28;20044;-72
2022/01/06 06:11:46;;;;;;;0.00;0.00;;;9.00;96.70;;;;;;5076484;28;20125;-72
2022/01/06 06:14:14;;;;;;;0.00;0.00;;;9.00;96.70;;;;;;5077579;28;20043;-72
2022/01/06 06:16:43;;;;;;;0.00;0.00;;;9.00;96.70;;;;;;5072125;28;20149;-72
2022/01/06 06:19:11;;;;;;;0.00;0.00;;;9.00;96.70;;;;;;5075974;28;20052;-72
2022/01/06 06:21:39;;;;;;;1.08;0.00;;;9.00;96.70;;;;;;5076304;28;20040;-72
2022/01/06 06:24:08;;;;;;;0.00;0.00;;;9.00;96.70;;;;;;5075706;28;20461;-71
2022/01/06 06:26:36;;;;;;;0.00;0.00;;;9.00;96.70;;;;;;5074118;28;20040;-71
2022/01/06 06:29:04;;;;;;;0.38;0.00;;;8.90;96.70;;;;;;5076070;28;20056;-72
2022/01/06 06:31:32;;;;;;;0.00;0.00;;;9.00;96.70;;;;;;5076989;28;20047;-72
2022/01/06 06:34:00;;;;;;;0.00;0.00;;;9.00;96.70;;;;;;5075683;28;20046;-72
2022/01/06 06:36:28;;;;;;;0.00;0.00;;;9.00;96.70;;;;;;5070361;28;20493;-72
2022/01/06 06:38:55;;;;;;;0.00;0.00;;;8.90;96.70;;;;;;5078696;28;20520;-72
2022/01/06 06:41:25;;;;;;;0.00;0.00;;;8.90;96.70;;;;;;5074711;28;20418;-71
2022/01/06 06:43:53;;;;;;;0.00;0.00;;;8.90;96.70;;;;;;5074380;28;20040;-71
2022/01/06 06:46:21;;;;;;;0.43;0.00;;;8.90;96.70;;;;;;5074142;28;20402;-71
2022/01/06 06:48:49;;;;;;;0.00;0.00;;;8.90;96.70;;;;;;5074803;28;20056;-72
2022/01/06 06:51:17;;;;;;;0.00;0.00;;;8.90;96.70;;;;;;5076919;28;20040;-72
2022/01/06 06:53:45;;;;;;;0.10;0.00;;;8.90;96.70;;;;;;5074434;28;20081;-71
2022/01/06 06:56:13;;;;;;;0.10;0.00;;;8.90;96.70;;;;;;5075691;28;20046;-71
2022/01/06 06:58:43;;;;;;;0.75;0.00;;;8.90;96.70;;;;;;5078265;28;20072;-71
2022/01/06 07:01:11;;;;;;;0.10;0.00;;;8.80;96.70;;;;;;5079880;28;20331;-71
2022/01/06 07:03:39;;;;;;;0.00;0.00;;;9.00;96.70;;;;;;5077205;28;20048;-72
2022/01/06 07:06:06;;;;;;;0.00;0.00;;;8.90;96.70;;;;;;5076170;28;20047;-71
2022/01/06 07:08:34;;;;;;;0.22;0.00;;;8.90;96.70;;;;;;5076046;28;20028;-71
2022/01/06 07:11:02;;;;;;;0.00;0.00;;;8.90;96.70;;;;;;5074618;28;20404;-72
2022/01/06 07:13:30;;;;;;;0.00;0.00;;;8.80;96.70;;;;;;5075362;28;20401;-71
2022/01/06 07:16:00;;;;;;;0.00;0.00;;;8.70;96.70;;;;;;5072653;28;20513;-72
2022/01/06 07:18:28;;;;;;;0.00;0.00;;;8.70;96.70;;;;;;5072478;28;20583;-72
2022/01/06 07:20:57;;;;;;;0.10;0.00;;;8.70;96.70;;;;;;5072542;28;20036;-72
2022/01/06 07:23:25;;;;;;;0.35;0.00;;;8.60;96.70;;;;;;5079946;28;20564;-72
2022/01/06 07:25:53;;;;;;;0.00;0.00;;;8.50;96.70;;;;;;5076672;28;20055;-72
2022/01/06 07:28:21;;;;;;;0.00;0.00;;;8.50;96.70;;;;;;5074486;28;20118;-72
2022/01/06 07:30:49;;;;;;;0.08;0.00;;;8.60;96.70;;;;;;5074343;28;20047;-71
2022/01/06 07:33:18;;;;;;;0.00;0.00;;;8.60;96.70;;;;;;5090024;28;20047;-72
2022/01/06 07:35:46;;;;;;;0.10;0.00;;;8.70;96.70;;;;;;5071190;28;20044;-72
2022/01/06 07:38:14;;;;;;;0.00;0.00;;;8.80;96.70;;;;;;5076592;28;20036;-72
2022/01/06 07:40:42;;;;;;;0.65;0.10;;;8.80;96.70;;;;;;5081802;28;20136;-71
2022/01/06 07:43:10;;;;;;;0.08;0.00;;;8.90;96.70;;;;;;5076052;28;20042;-71
2022/01/06 07:45:38;;;;;;;0.20;0.10;;;9.00;96.70;;;;;;5080138;28;20036;-72
2022/01/06 07:48:15;;;;;;;1.42;0.10;;;9.00;96.70;;;;;;5078021;28;20035;-72
2022/01/06 07:50:46;;;;;;;0.43;0.10;;;9.00;96.70;;;;;;5096468;28;20073;-72
2022/01/06 07:53:14;;;;;;;1.27;0.40;;;9.00;96.70;;;;;;5082474;28;20052;-71
2022/01/06 07:55:42;;;;;;;0.55;0.20;;;9.00;96.70;;;;;;5078283;28;20050;-72
2022/01/06 07:58:10;;;;;;;0.05;0.03;;;9.10;96.70;;;;;;5080431;28;20406;-72
2022/01/06 08:00:38;;;;;;;0.03;0.00;;;9.10;96.70;;;;;;5079733;28;20066;-71
2022/01/06 08:03:06;;;;;;;0.10;0.00;;;9.10;96.70;;;;;;5076538;28;20492;-72
2022/01/06 08:05:34;;;;;;;0.20;0.05;;;9.20;96.70;;;;;;5082610;28;20040;-72
2022/01/06 08:08:04;;;;;;;0.15;0.00;;;9.20;96.70;;;;;;5078798;28;20135;-72
2022/01/06 08:10:32;;;;;;;0.55;0.00;;;9.20;96.70;;;;;;5096357;27;20048;-72
2022/01/06 08:13:00;;;;;;;0.00;0.00;;;9.20;96.70;;;;;;5079991;28;20119;-72
2022/01/06 08:15:28;;;;;;;0.00;0.00;;;9.30;96.70;;;;;;5075400;28;20032;-72
2022/01/06 08:17:56;;;;;;;0.20;0.00;;;9.30;96.70;;;;;;5080964;28;20036;-72
2022/01/06 08:20:24;;;;;;;0.00;0.00;;;9.30;96.70;;;;;;5078050;28;20063;-72
2022/01/06 08:22:52;;;;;;;0.20;0.00;;;9.30;96.70;;;;;;5077928;28;20044;-72
2022/01/06 08:25:21;;;;;;;0.05;0.00;;;9.30;96.70;;;;;;5077747;28;20095;-72
2022/01/06 08:27:49;;;;;;;0.10;0.00;;;9.40;96.70;;;;;;5076955;28;20044;-72
2022/01/06 08:30:17;;;;;;;0.05;0.00;;;9.40;96.70;;;;;;5078097;28;20036;-72
2022/01/06 08:32:45;;;;;;;0.00;0.00;;;9.40;96.70;;;;;;5079319;28;20046;-72
2022/01/06 08:35:13;;;;;;;0.00;0.00;;;9.40;96.70;;;;;;5075121;28;20070;-72
2022/01/06 08:37:41;;;;;;;0.10;0.00;;;9.40;96.70;;;;;;5076629;28;20153;-71
2022/01/06 08:40:10;;;;;;;0.08;0.00;;;9.40;96.70;;;;;;5079871;28;20109;-72
2022/01/06 08:42:40;;;;;;;0.45;0.00;;;9.40;96.70;;;;;;5096955;28;20509;-72
2022/01/06 08:45:09;;;;;;;0.00;0.00;;;9.40;96.70;;;;;;5074399;28;20040;-72
2022/01/06 08:47:37;;;;;;;0.00;0.00;;;9.50;96.70;;;;;;5079199;28;20429;-74
2022/01/06 08:50:06;;;;;;;0.15;0.08;;;9.60;96.70;;;;;;5078365;28;20052;-73
2022/01/06 08:52:36;;;;;;;0.88;0.00;;;9.60;96.70;;;;;;5077178;28;20048;-71
2022/01/06 08:55:06;;;;;;;0.10;0.00;;;9.60;96.70;;;;;;5080893;28;20063;-74
2022/01/06 08:57:35;;;;;;;0.32;0.05;;;9.70;96.70;;;;;;5080204;28;20032;-71
2022/01/06 09:00:07;;;;;;;0.10;0.00;;;9.70;96.70;;;;;;5076889;28;20089;-71
2022/01/06 09:02:35;;;;;;;0.15;0.03;;;9.80;96.70;;;;;;5097561;28;20089;-72
2022/01/06 09:05:06;;;;;;;0.00;0.00;;;9.80;96.70;;;;;;5072393;28;20032;-72
2022/01/06 09:07:35;;;;;;;0.10;0.00;;;9.90;96.70;;;;;;5075462;28;20043;-72
2022/01/06 09:10:04;;;;;;;0.10;0.00;;;10.00;96.70;;;;;;5079574;28;20072;-72
2022/01/06 09:12:32;;;;;;;0.45;0.10;;;10.00;96.70;;;;;;5078856;28;20052;-71
2022/01/06 09:15:00;;;;;;;0.05;0.00;;;10.20;96.70;;;;;;5095732;28;20036;-71
2022/01/06 09:17:29;;;;;;;0.20;0.10;;;10.30;96.70;;;;;;5078670;28;20043;-72
2022/01/06 09:19:57;;;;;;;0.03;0.00;;;10.40;96.70;;;;;;5074997;28;20036;-71
2022/01/06 09:22:25;;;;;;;0.22;0.10;;;10.40;96.70;;;;;;5078363;28;20052;-72
2022/01/06 09:24:53;;;;;;;0.20;0.10;;;10.40;96.70;;;;;;5077935;28;20062;-71
2022/01/06 09:27:23;;;;;;;0.13;0.00;;;10.50;96.70;;;;;;5075084;28;20051;-71
2022/01/06 09:29:52;;;;;;;0.45;0.13;;;10.50;96.70;;;;;;5061940;28;20485;-71
2022/01/06 09:32:20;;;;;;;0.28;0.10;;;10.50;96.70;;;;;;5063192;28;20189;-70
2022/01/06 09:34:49;;;;;;;0.20;0.10;;;10.50;96.70;;;;;;5077840;28;20063;-71
2022/01/06 09:37:18;;;;;;;0.52;0.20;;;10.60;96.70;;;;;;5078716;28;20271;-71
2022/01/06 09:39:47;;;;;;;1.25;0.10;;;10.70;96.70;;;;;;5073612;28;20047;-71
2022/01/06 09:42:16;;;;;;;1.88;0.10;;;10.70;96.70;;;;;;5074634;28;20040;-71
2022/01/06 09:44:47;;;;;;;1.75;0.20;;;10.80;96.70;;;;;;5075464;28;20148;-73
2022/01/06 09:47:16;;;;;;;0.50;0.20;;;10.90;96.70;;;;;;5076603;28;20098;-72
2022/01/06 09:50:08;;;;;;;0.20;0.10;;;10.90;96.70;;;;;;5080364;28;20047;-72
2022/01/06 09:52:37;;;;;;;6.10;3.22;;;10.80;96.70;;;;;;5074939;28;20584;-72
2022/01/06 09:55:06;;;;;;;1.50;0.70;;;10.90;96.70;;;;;;5078051;28;20416;-74
2022/01/06 09:57:34;;;;;;;2.03;1.02;;;11.10;96.70;;;;;;5080607;28;20070;-75
2022/01/06 10:00:07;;;;;;;1.70;1.00;;;11.30;96.70;;;;;;5074116;28;20097;-75
2022/01/06 10:02:39;;;;;;;1.02;0.50;;;11.50;96.70;;;;;;5076057;28;20048;-75
2022/01/06 10:05:10;;;;;;;1.65;1.05;;;11.60;96.70;;;;;;5075953;28;20512;-74
2022/01/06 10:07:39;;;;;;;0.60;0.30;;;11.60;96.70;;;;;;5077133;28;20461;-74
2022/01/06 10:10:09;;;;;;;1.70;0.73;;;11.70;96.70;;;;;;5062805;28;20039;-74
2022/01/06 10:12:39;;;;;;;1.55;0.47;;;11.70;96.70;;;;;;5078269;28;20101;-75
2022/01/06 10:15:17;;;;;;;1.67;0.30;;;11.70;96.70;;;;;;5065592;28;20056;-76
2022/01/06 10:17:47;;;;;;;0.50;0.30;;;11.50;96.70;;;;;;5078085;28;20050;-72
2022/01/06 10:20:20;;;;;;;0.65;0.25;;;11.40;96.70;;;;;;5076076;28;20044;-71
2022/01/06 10:22:50;;;;;;;1.10;0.73;;;11.20;96.70;;;;;;5074197;28;20048;-71
2022/01/06 10:25:21;;;;;;;1.25;0.73;;;11.20;96.70;;;;;;5056807;28;20040;-72
2022/01/06 10:27:51;;;;;;;1.30;0.32;;;11.20;96.70;;;;;;5077304;28;20398;-71
2022/01/06 10:30:19;;;;;;;1.80;0.85;;;11.10;96.70;;;;;;5077026;28;20043;-71
2022/01/06 10:32:47;;;;;;;1.48;0.35;;;11.00;96.70;;;;;;5058181;28;20086;-71
2022/01/06 10:35:20;;;;;;;1.67;0.60;;;10.90;96.70;;;;;;5077563;28;20123;-71
2022/01/06 10:37:48;;;;;;;0.90;0.70;;;10.90;96.70;;;;;;5075813;28;20090;-72
2022/01/06 10:40:22;;;;;;;0.40;0.30;;;10.80;96.70;;;;;;5075942;28;20044;-72
2022/01/06 10:42:52;;;;;;;1.38;0.30;;;10.80;96.70;;;;;;5075887;28;20048;-72
2022/01/06 10:45:25;;;;;;;1.35;0.30;;;10.80;96.70;;;;;;5074522;28;20048;-72
2022/01/06 10:47:54;;;;;;;1.20;0.52;;;10.90;96.70;;;;;;5072919;28;20221;-72
2022/01/06 10:50:26;;;;;;;0.63;0.30;;;10.90;96.70;;;;;;5077980;28;20048;-74
2022/01/06 10:52:57;;;;;;;1.15;0.43;;;10.90;96.70;;;;;;5078275;28;20040;-71
2022/01/06 10:55:28;;;;;;;1.17;0.20;;;10.90;96.70;;;;;;5074212;28;20109;-71
2022/01/06 10:57:59;;;;;;;0.52;0.35;;;10.90;96.70;;;;;;5077931;28;20402;-71
2022/01/06 11:00:29;;;;;;;0.65;0.20;;;10.90;96.70;;;;;;5076869;28;20059;-73
2022/01/06 11:03:10;;;;;;;0.80;0.40;;;11.00;96.70;;;;;;5076224;28;20044;-71
2022/01/06 11:05:42;;;;;;;0.65;0.32;;;10.90;96.70;;;;;;5075163;28;20040;-71
2022/01/06 11:08:10;;;;;;;0.28;0.20;;;10.90;96.70;;;;;;5071170;28;20589;-71
2022/01/06 11:10:47;;;;;;;0.40;0.30;;;10.90;96.70;;;;;;5073971;28;20127;-72
2022/01/06 11:13:17;;;;;;;0.40;0.20;;;11.00;96.70;;;;;;5075646;28;20441;-71
2022/01/06 11:15:45;;;;;;;1.30;0.73;;;11.00;96.70;;;;;;5060104;28;20098;-71
2022/01/06 11:18:19;;;;;;;2.15;0.50;;;10.90;96.70;;;;;;5075017;28;20042;-71
2022/01/06 11:20:49;;;;;;;0.65;0.30;;;10.90;96.70;;;;;;5069815;28;20036;-71
2022/01/06 11:23:21;;;;;;;0.55;0.30;;;10.80;96.70;;;;;;5077867;28;20143;-71
2022/01/06 11:26:06;;;;;;;1.20;0.68;;;10.80;96.70;;;;;;5077935;28;20044;-71
2022/01/06 11:28:35;;;;;;;1.15;0.55;;;10.80;96.70;;;;;;5033966;28;20592;-71
2022/01/06 11:31:15;;;;;;;1.50;0.50;;;10.80;96.70;;;;;;5052202;28;20233;-70
2022/01/06 11:33:45;;;;;;;1.63;0.60;;;10.90;96.70;;;;;;5046666;28;20172;-70
2022/01/06 11:36:24;;;;;;;1.67;0.70;;;10.90;96.70;;;;;;5054218;28;20753;-70
2022/01/06 11:38:52;;;;;;;0.80;0.45;;;10.90;96.70;;;;;;5056530;28;20050;-71
2022/01/06 11:41:25;;;;;;;2.22;1.00;;;10.90;96.70;;;;;;5038032;28;20067;-71
2022/01/06 11:43:57;;;;;;;3.38;1.50;;;10.80;96.70;;;;;;5035830;28;20228;-71
2022/01/06 11:46:25;;;;;;;2.40;1.35;;;10.80;96.70;;;;;;5054457;28;20167;-71
2022/01/06 11:48:55;;;;;;;1.85;1.00;;;10.80;96.70;;;;;;5050488;28;20052;-71
2022/01/06 11:51:28;;;;;;;2.22;1.10;;;10.80;96.70;;;;;;5032181;28;20462;-71
2022/01/06 11:53:57;;;;;;;2.00;1.00;;;10.80;96.70;;;;;;5038412;28;20555;-71
2022/01/06 11:56:26;;;;;;;1.45;0.82;;;10.80;96.70;;;;;;5033287;28;20418;-71
2022/01/06 11:58:58;;;;;;;1.58;0.60;;;10.90;96.70;;;;;;5043110;28;20597;-71
2022/01/06 12:01:27;;;;;;;1.38;0.82;;;10.80;96.70;;;;;;5079302;28;20521;-70
2022/01/06 12:03:55;;;;;;;1.20;0.77;;;10.80;96.70;;;;;;5074372;28;20048;-71
2022/01/06 12:06:28;;;;;;;1.50;0.80;;;10.90;96.70;;;;;;5077753;28;20410;-71
2022/01/06 12:08:57;;;;;;;1.33;0.80;;;10.90;96.70;;;;;;5075135;28;20509;-71
2022/01/06 12:11:29;;;;;;;0.70;0.40;;;10.90;96.70;;;;;;5073107;28;20510;-71
2022/01/06 12:14:01;;;;;;;0.43;0.30;;;11.00;96.70;;;;;;5074537;28;20557;-71
2022/01/06 12:16:31;;;;;;;0.75;0.47;;;11.00;96.70;;;;;;5074706;28;20048;-71
2022/01/06 12:19:02;;;;;;;0.77;0.40;;;11.00;96.70;;;;;;5075396;28;20570;-71
2022/01/06 12:21:31;;;;;;;2.15;0.80;;;11.10;96.70;;;;;;5074967;28;20111;-71
2022/01/06 12:24:01;;;;;;;1.80;0.70;;;11.00;96.70;;;;;;5090781;28;20055;-71
2022/01/06 12:26:30;;;;;;;1.35;0.60;;;11.00;96.70;;;;;;5081377;28;20055;-71
2022/01/06 12:28:58;;;;;;;1.25;0.75;;;11.00;96.70;;;;;;5077708;28;20047;-71
2022/01/06 12:31:28;;;;;;;0.70;0.35;;;11.10;96.70;;;;;;5075967;28;20051;-71
2022/01/06 12:34:02;;;;;;;0.70;0.28;;;11.10;96.70;;;;;;5079861;28;20040;-71
2022/01/06 12:36:33;;;;;;;1.17;0.50;;;11.10;96.70;;;;;;5080234;28;20119;-71
2022/01/06 12:39:07;;;;;;;1.73;0.80;;;11.10;96.70;;;;;;5079037;28;20059;-71
2022/01/06 12:41:37;;;;;;;0.90;0.70;;;11.10;96.70;;;;;;5075141;28;20040;-71
2022/01/06 12:44:05;;;;;;;1.02;0.60;;;11.20;96.70;;;;;;5058285;28;20043;-71
2022/01/06 12:46:35;;;;;;;1.27;0.60;;;11.20;96.70;;;;;;5080365;28;20474;-71
2022/01/06 12:49:08;;;;;;;1.33;0.65;;;11.10;96.70;;;;;;5077423;28;20155;-71
2022/01/06 12:51:39;;;;;;;1.90;1.38;;;11.10;96.70;;;;;;5078146;28;20044;-71
2022/01/06 12:54:15;;;;;;;1.52;1.02;;;11.10;96.70;;;;;;5078096;28;20048;-71
2022/01/06 12:56:45;;;;;;;1.63;1.30;;;11.00;96.70;;;;;;5081478;28;20044;-71
2022/01/06 12:59:14;;;;;;;1.67;0.60;;;10.90;96.70;;;;;;5080664;28;20059;-71
2022/01/06 13:01:44;;;;;;;1.20;0.80;;;11.00;96.70;;;;;;5077348;28;20048;-71
2022/01/06 13:04:13;;;;;;;2.15;1.08;;;11.10;96.70;;;;;;5080996;28;20134;-71
2022/01/06 13:06:43;;;;;;;3.60;1.30;;;11.30;96.70;;;;;;5079114;28;20039;-71
2022/01/06 13:09:16;;;;;;;0.60;0.40;;;11.50;96.70;;;;;;5078453;28;20045;-71
2022/01/06 13:11:48;;;;;;;1.63;0.70;;;11.60;96.70;;;;;;5079482;28;20051;-70